sensor_id;sensor_type;location;lat;lon;timestamp;temperature;humidity
57829;DHT22;43657;52.698;6.314;2023-04-24T00:01:51;9.30;99.90
57829;DHT22;43657;52.698;6.314;2023-04-24T00:04:17;9.30;99.90
57829;DHT22;43657;52.698;6.314;2023-04-24T00:06:43;9.30;99.90
57829;DHT22;43657;52.698;6.314;2023-04-24T00:09:09;9.30;99.90
57829;DHT22;43657;52.698;6.314;2023-04-24T00:11:35;9.30;99.90
57829;DHT22;43657;52.698;6.314;2023-04-24T00:14:01;9.40;99.90
57829;DHT22;43657;52.698;6.314;2023-04-24T00:16:27;9.40;99.90
57829;DHT22;43657;52.698;6.314;2023-04-24T00:18:53;9.40;99.90
57829;DHT22;43657;52.698;6.314;2023-04-24T00:21:19;9.40;99.90
57829;DHT22;43657;52.698;6.314;2023-04-24T00:23:44;9.40;99.90
57829;DHT22;43657;52.698;6.314;2023-04-24T00:26:10;9.40;99.90
57829;DHT22;43657;52.698;6.314;2023-04-24T00:28:36;9.40;99.90
57829;DHT22;43657;52.698;6.314;2023-04-24T00:31:01;9.50;99.90
57829;DHT22;43657;52.698;6.314;2023-04-24T00:33:27;9.40;99.90
57829;DHT22;43657;52.698;6.314;2023-04-24T00:35:52;9.50;99.90
57829;DHT22;43657;52.698;6.314;2023-04-24T00:38:18;9.50;99.90
57829;DHT22;43657;52.698;6.314;2023-04-24T00:40:44;9.50;99.90
57829;DHT22;43657;52.698;6.314;2023-04-24T00:43:10;9.50;99.90
57829;DHT22;43657;52.698;6.314;2023-04-24T00:45:36;9.50;99.90
57829;DHT22;43657;52.698;6.314;2023-04-24T00:48:02;9.50;99.90
57829;DHT22;43657;52.698;6.314;2023-04-24T00:50:28;9.60;99.90
57829;DHT22;43657;52.698;6.314;2023-04-24T00:52:54;9.60;99.90
57829;DHT22;43657;52.698;6.314;2023-04-24T00:55:20;9.50;99.90
57829;DHT22;43657;52.698;6.314;2023-04-24T00:57:47;9.60;99.90
57829;DHT22;43657;52.698;6.314;2023-04-24T01:00:13;9.60;99.90
57829;DHT22;43657;52.698;6.314;2023-04-24T01:02:40;9.60;99.90
57829;DHT22;43657;52.698;6.314;2023-04-24T01:05:09;9.60;99.90
57829;DHT22;43657;52.698;6.314;2023-04-24T01:07:35;9.60;99.90
57829;DHT22;43657;52.698;6.314;2023-04-24T01:10:01;9.60;99.90
57829;DHT22;43657;52.698;6.314;2023-04-24T01:12:27;9.60;99.90
57829;DHT22;43657;52.698;6.314;2023-04-24T01:14:54;9.70;99.90
57829;DHT22;43657;52.698;6.314;2023-04-24T01:17:19;9.70;99.90
57829;DHT22;43657;52.698;6.314;2023-04-24T01:19:46;9.70;99.90
57829;DHT22;43657;52.698;6.314;2023-04-24T01:22:15;9.70;99.90
57829;DHT22;43657;52.698;6.314;2023-04-24T01:24:42;9.70;99.90
57829;DHT22;43657;52.698;6.314;2023-04-24T01:27:09;9.60;99.90
57829;DHT22;43657;52.698;6.314;2023-04-24T01:29:35;9.60;99.90
57829;DHT22;43657;52.698;6.314;2023-04-24T01:32:01;9.60;99.90
57829;DHT22;43657;52.698;6.314;2023-04-24T01:34:27;9.60;99.90
57829;DHT22;43657;52.698;6.314;2023-04-24T01:36:53;9.50;99.90
57829;DHT22;43657;52.698;6.314;2023-04-24T01:39:19;9.50;99.90
57829;DHT22;43657;52.698;6.314;2023-04-24T01:41:46;9.50;99.90
57829;DHT22;43657;52.698;6.314;2023-04-24T01:44:11;9.50;99.90
57829;DHT22;43657;52.698;6.314;2023-04-24T01:46:37;9.50;99.90
57829;DHT22;43657;52.698;6.314;2023-04-24T01:49:03;9.40;99.90
57829;DHT22;43657;52.698;6.314;2023-04-24T01:51:29;9.40;99.90
57829;DHT22;43657;52.698;6.314;2023-04-24T01:53:55;9.40;99.90
57829;DHT22;43657;52.698;6.314;2023-04-24T01:56:22;9.40;99.90
57829;DHT22;43657;52.698;6.314;2023-04-24T01:58:49;9.40;99.90
57829;DHT22;43657;52.698;6.314;2023-04-24T02:01:19;9.40;99.90
57829;DHT22;43657;52.698;6.314;2023-04-24T02:03:45;9.40;99.90
57829;DHT22;43657;52.698;6.314;2023-04-24T02:06:11;9.30;99.90
57829;DHT22;43657;52.698;6.314;2023-04-24T02:08:36;9.30;99.90
57829;DHT22;43657;52.698;6.314;2023-04-24T02:11:02;9.30;99.90
57829;DHT22;43657;52.698;6.314;2023-04-24T02:13:28;9.30;99.90
57829;DHT22;43657;52.698;6.314;2023-04-24T02:15:53;9.30;99.90
57829;DHT22;43657;52.698;6.314;2023-04-24T02:18:19;9.30;99.90
57829;DHT22;43657;52.698;6.314;2023-04-24T02:20:45;9.30;99.90
57829;DHT22;43657;52.698;6.314;2023-04-24T02:23:11;9.30;99.90
57829;DHT22;43657;52.698;6.314;2023-04-24T02:25:36;9.30;99.90
57829;DHT22;43657;52.698;6.314;2023-04-24T02:28:02;9.30;99.90
57829;DHT22;43657;52.698;6.314;2023-04-24T02:30:28;9.20;99.90
57829;DHT22;43657;52.698;6.314;2023-04-24T02:32:53;9.30;99.90
57829;DHT22;43657;52.698;6.314;2023-04-24T02:35:19;9.20;99.90
57829;DHT22;43657;52.698;6.314;2023-04-24T02:37:45;9.20;99.90
57829;DHT22;43657;52.698;6.314;2023-04-24T02:40:11;9.20;99.90
57829;DHT22;43657;52.698;6.314;2023-04-24T02:42:36;9.20;99.90
57829;DHT22;43657;52.698;6.314;2023-04-24T02:45:02;9.20;99.90
57829;DHT22;43657;52.698;6.314;2023-04-24T02:47:27;9.20;99.90
57829;DHT22;43657;52.698;6.314;2023-04-24T02:49:53;9.20;99.90
57829;DHT22;43657;52.698;6.314;2023-04-24T02:52:18;9.20;99.90
57829;DHT22;43657;52.698;6.314;2023-04-24T02:54:44;9.10;99.90
57829;DHT22;43657;52.698;6.314;2023-04-24T02:57:10;9.10;99.90
57829;DHT22;43657;52.698;6.314;2023-04-24T02:59:35;9.10;99.90
57829;DHT22;43657;52.698;6.314;2023-04-24T03:02:01;9.10;99.90
57829;DHT22;43657;52.698;6.314;2023-04-24T03:04:26;9.10;99.90
57829;DHT22;43657;52.698;6.314;2023-04-24T03:06:52;9.10;99.90
57829;DHT22;43657;52.698;6.314;2023-04-24T03:09:20;9.10;99.90
57829;DHT22;43657;52.698;6.314;2023-04-24T03:11:46;9.10;99.90
57829;DHT22;43657;52.698;6.314;2023-04-24T03:14:11;9.20;99.90
57829;DHT22;43657;52.698;6.314;2023-04-24T03:16:37;9.10;99.90
57829;DHT22;43657;52.698;6.314;2023-04-24T03:19:02;9.10;99.90
57829;DHT22;43657;52.698;6.314;2023-04-24T03:21:28;9.10;99.90
57829;DHT22;43657;52.698;6.314;2023-04-24T03:23:53;9.10;99.90
57829;DHT22;43657;52.698;6.314;2023-04-24T03:26:19;9.10;99.90
57829;DHT22;43657;52.698;6.314;2023-04-24T03:28:45;9.10;99.90
57829;DHT22;43657;52.698;6.314;2023-04-24T03:31:10;9.10;99.90
57829;DHT22;43657;52.698;6.314;2023-04-24T03:33:36;9.10;99.90
57829;DHT22;43657;52.698;6.314;2023-04-24T03:36:02;9.10;99.90
57829;DHT22;43657;52.698;6.314;2023-04-24T03:38:27;9.00;99.90
57829;DHT22;43657;52.698;6.314;2023-04-24T03:40:53;9.00;99.90
57829;DHT22;43657;52.698;6.314;2023-04-24T03:43:19;9.00;99.90
57829;DHT22;43657;52.698;6.314;2023-04-24T03:45:44;9.00;99.90
57829;DHT22;43657;52.698;6.314;2023-04-24T03:48:10;9.00;99.90
57829;DHT22;43657;52.698;6.314;2023-04-24T03:50:35;9.00;99.90
57829;DHT22;43657;52.698;6.314;2023-04-24T03:53:01;9.00;99.90
57829;DHT22;43657;52.698;6.314;2023-04-24T03:55:26;8.90;99.90
57829;DHT22;43657;52.698;6.314;2023-04-24T03:57:52;8.90;99.90
57829;DHT22;43657;52.698;6.314;2023-04-24T04:00:20;8.80;99.90
57829;DHT22;43657;52.698;6.314;2023-04-24T04:02:46;8.80;99.90
57829;DHT22;43657;52.698;6.314;2023-04-24T04:05:12;8.80;99.90
57829;DHT22;43657;52.698;6.314;2023-04-24T04:07:37;8.70;99.90
57829;DHT22;43657;52.698;6.314;2023-04-24T04:10:03;8.70;99.90
57829;DHT22;43657;52.698;6.314;2023-04-24T04:12:29;8.70;99.90
57829;DHT22;43657;52.698;6.314;2023-04-24T04:14:55;8.80;99.90
57829;DHT22;43657;52.698;6.314;2023-04-24T04:17:21;8.80;99.90
57829;DHT22;43657;52.698;6.314;2023-04-24T04:19:46;8.80;99.90
57829;DHT22;43657;52.698;6.314;2023-04-24T04:22:12;8.80;99.90
57829;DHT22;43657;52.698;6.314;2023-04-24T04:24:37;8.80;99.90
57829;DHT22;43657;52.698;6.314;2023-04-24T04:27:04;8.80;99.90
57829;DHT22;43657;52.698;6.314;2023-04-24T04:29:30;8.80;99.90
57829;DHT22;43657;52.698;6.314;2023-04-24T04:31:57;8.70;99.90
57829;DHT22;43657;52.698;6.314;2023-04-24T04:34:22;8.70;99.90
57829;DHT22;43657;52.698;6.314;2023-04-24T04:36:48;8.70;99.90
57829;DHT22;43657;52.698;6.314;2023-04-24T04:39:14;8.70;99.90
57829;DHT22;43657;52.698;6.314;2023-04-24T04:41:40;8.70;99.90
57829;DHT22;43657;52.698;6.314;2023-04-24T04:44:07;8.70;99.90
57829;DHT22;43657;52.698;6.314;2023-04-24T04:46:34;8.70;99.90
57829;DHT22;43657;52.698;6.314;2023-04-24T04:49:00;8.70;99.90
57829;DHT22;43657;52.698;6.314;2023-04-24T04:51:26;8.70;99.90
57829;DHT22;43657;52.698;6.314;2023-04-24T04:53:52;8.70;99.90
57829;DHT22;43657;52.698;6.314;2023-04-24T04:56:18;8.70;99.90
57829;DHT22;43657;52.698;6.314;2023-04-24T04:58:43;8.80;99.90
57829;DHT22;43657;52.698;6.314;2023-04-24T05:01:09;8.80;99.90
57829;DHT22;43657;52.698;6.314;2023-04-24T05:03:35;8.90;99.90
57829;DHT22;43657;52.698;6.314;2023-04-24T05:06:01;9.00;99.90
57829;DHT22;43657;52.698;6.314;2023-04-24T05:08:27;9.10;99.90
57829;DHT22;43657;52.698;6.314;2023-04-24T05:10:53;9.30;99.90
57829;DHT22;43657;52.698;6.314;2023-04-24T05:13:19;9.30;99.90
57829;DHT22;43657;52.698;6.314;2023-04-24T05:15:45;9.30;99.90
57829;DHT22;43657;52.698;6.314;2023-04-24T05:18:10;9.40;99.90
57829;DHT22;43657;52.698;6.314;2023-04-24T05:20:36;9.30;99.90
57829;DHT22;43657;52.698;6.314;2023-04-24T05:23:01;9.40;99.90
57829;DHT22;43657;52.698;6.314;2023-04-24T05:25:27;9.40;99.90
57829;DHT22;43657;52.698;6.314;2023-04-24T05:27:52;9.40;99.90
57829;DHT22;43657;52.698;6.314;2023-04-24T05:30:19;9.40;99.90
57829;DHT22;43657;52.698;6.314;2023-04-24T05:32:45;9.40;99.90
57829;DHT22;43657;52.698;6.314;2023-04-24T05:35:11;9.30;99.90
57829;DHT22;43657;52.698;6.314;2023-04-24T05:37:37;9.30;99.90
57829;DHT22;43657;52.698;6.314;2023-04-24T05:40:03;9.30;99.90
57829;DHT22;43657;52.698;6.314;2023-04-24T05:42:30;9.40;99.90
57829;DHT22;43657;52.698;6.314;2023-04-24T05:44:56;9.40;99.90
57829;DHT22;43657;52.698;6.314;2023-04-24T05:47:22;9.40;99.90
57829;DHT22;43657;52.698;6.314;2023-04-24T05:49:47;9.40;99.90
57829;DHT22;43657;52.698;6.314;2023-04-24T05:52:13;9.40;99.90
57829;DHT22;43657;52.698;6.314;2023-04-24T05:54:39;9.40;99.90
57829;DHT22;43657;52.698;6.314;2023-04-24T05:57:04;9.40;99.90
57829;DHT22;43657;52.698;6.314;2023-04-24T05:59:34;9.40;99.90
57829;DHT22;43657;52.698;6.314;2023-04-24T06:01:59;9.40;99.90
57829;DHT22;43657;52.698;6.314;2023-04-24T06:04:25;9.40;99.90
57829;DHT22;43657;52.698;6.314;2023-04-24T06:06:51;9.40;99.90
57829;DHT22;43657;52.698;6.314;2023-04-24T06:09:24;9.40;99.90
57829;DHT22;43657;52.698;6.314;2023-04-24T06:11:50;9.40;99.90
57829;DHT22;43657;52.698;6.314;2023-04-24T06:14:18;9.40;99.90
57829;DHT22;43657;52.698;6.314;2023-04-24T06:16:44;9.40;99.90
57829;DHT22;43657;52.698;6.314;2023-04-24T06:19:09;9.40;99.90
57829;DHT22;43657;52.698;6.314;2023-04-24T06:21:35;9.30;99.90
57829;DHT22;43657;52.698;6.314;2023-04-24T06:24:01;9.30;99.90
57829;DHT22;43657;52.698;6.314;2023-04-24T06:26:27;9.30;99.90
57829;DHT22;43657;52.698;6.314;2023-04-24T06:28:53;9.30;99.90
57829;DHT22;43657;52.698;6.314;2023-04-24T06:31:21;9.30;99.90
57829;DHT22;43657;52.698;6.314;2023-04-24T06:33:48;9.30;99.90
57829;DHT22;43657;52.698;6.314;2023-04-24T06:36:13;9.30;99.90
57829;DHT22;43657;52.698;6.314;2023-04-24T06:38:39;9.30;99.90
57829;DHT22;43657;52.698;6.314;2023-04-24T06:41:04;9.30;99.90
57829;DHT22;43657;52.698;6.314;2023-04-24T06:43:31;9.30;99.90
57829;DHT22;43657;52.698;6.314;2023-04-24T06:45:57;9.30;99.90
57829;DHT22;43657;52.698;6.314;2023-04-24T06:48:24;9.20;99.90
57829;DHT22;43657;52.698;6.314;2023-04-24T06:50:50;9.20;99.90
57829;DHT22;43657;52.698;6.314;2023-04-24T06:53:16;9.30;99.90
57829;DHT22;43657;52.698;6.314;2023-04-24T06:55:42;9.20;99.90
57829;DHT22;43657;52.698;6.314;2023-04-24T06:58:10;9.30;99.90
57829;DHT22;43657;52.698;6.314;2023-04-24T07:00:36;9.30;99.90
57829;DHT22;43657;52.698;6.314;2023-04-24T07:03:01;9.20;99.90
57829;DHT22;43657;52.698;6.314;2023-04-24T07:05:27;9.20;99.90
57829;DHT22;43657;52.698;6.314;2023-04-24T07:07:53;9.10;99.90
57829;DHT22;43657;52.698;6.314;2023-04-24T07:10:19;9.10;99.90
57829;DHT22;43657;52.698;6.314;2023-04-24T07:12:45;9.20;99.90
57829;DHT22;43657;52.698;6.314;2023-04-24T07:15:11;9.20;99.90
57829;DHT22;43657;52.698;6.314;2023-04-24T07:17:37;9.20;99.90
57829;DHT22;43657;52.698;6.314;2023-04-24T07:20:04;9.20;99.90
57829;DHT22;43657;52.698;6.314;2023-04-24T07:22:30;9.20;99.90
57829;DHT22;43657;52.698;6.314;2023-04-24T07:24:56;9.20;99.90
57829;DHT22;43657;52.698;6.314;2023-04-24T07:27:22;9.20;99.90
57829;DHT22;43657;52.698;6.314;2023-04-24T07:29:47;9.20;99.90
57829;DHT22;43657;52.698;6.314;2023-04-24T07:32:13;9.20;99.90
57829;DHT22;43657;52.698;6.314;2023-04-24T07:34:39;9.20;99.90
57829;DHT22;43657;52.698;6.314;2023-04-24T07:37:04;9.20;99.90
57829;DHT22;43657;52.698;6.314;2023-04-24T07:39:30;9.20;99.90
57829;DHT22;43657;52.698;6.314;2023-04-24T07:41:55;9.20;99.90
57829;DHT22;43657;52.698;6.314;2023-04-24T07:44:21;9.20;99.90
57829;DHT22;43657;52.698;6.314;2023-04-24T07:46:47;9.20;99.90
57829;DHT22;43657;52.698;6.314;2023-04-24T07:49:12;9.20;99.90
57829;DHT22;43657;52.698;6.314;2023-04-24T07:51:38;9.20;99.90
57829;DHT22;43657;52.698;6.314;2023-04-24T07:54:04;9.20;99.90
57829;DHT22;43657;52.698;6.314;2023-04-24T07:56:33;9.20;99.90
57829;DHT22;43657;52.698;6.314;2023-04-24T07:58:59;9.20;99.90
57829;DHT22;43657;52.698;6.314;2023-04-24T08:01:26;9.10;99.90
57829;DHT22;43657;52.698;6.314;2023-04-24T08:03:52;9.20;99.90
57829;DHT22;43657;52.698;6.314;2023-04-24T08:06:17;9.20;99.90
57829;DHT22;43657;52.698;6.314;2023-04-24T08:08:43;9.10;99.90
57829;DHT22;43657;52.698;6.314;2023-04-24T08:11:08;9.10;99.90
57829;DHT22;43657;52.698;6.314;2023-04-24T08:13:34;9.00;99.90
57829;DHT22;43657;52.698;6.314;2023-04-24T08:16:00;9.00;99.90
57829;DHT22;43657;52.698;6.314;2023-04-24T08:18:26;9.00;99.90
57829;DHT22;43657;52.698;6.314;2023-04-24T08:20:51;9.00;99.90
57829;DHT22;43657;52.698;6.314;2023-04-24T08:23:17;9.00;99.90
57829;DHT22;43657;52.698;6.314;2023-04-24T08:25:42;8.90;99.90
57829;DHT22;43657;52.698;6.314;2023-04-24T08:28:09;8.90;99.90
57829;DHT22;43657;52.698;6.314;2023-04-24T08:30:36;8.90;99.90
57829;DHT22;43657;52.698;6.314;2023-04-24T08:33:01;8.90;99.90
57829;DHT22;43657;52.698;6.314;2023-04-24T08:35:27;8.80;99.90
57829;DHT22;43657;52.698;6.314;2023-04-24T08:37:53;8.80;99.90
57829;DHT22;43657;52.698;6.314;2023-04-24T08:40:23;8.70;99.90
57829;DHT22;43657;52.698;6.314;2023-04-24T08:42:54;8.70;99.90
57829;DHT22;43657;52.698;6.314;2023-04-24T08:45:21;8.60;99.90
57829;DHT22;43657;52.698;6.314;2023-04-24T08:47:47;8.60;99.90
57829;DHT22;43657;52.698;6.314;2023-04-24T08:50:14;8.50;99.90
57829;DHT22;43657;52.698;6.314;2023-04-24T08:52:42;8.40;99.90
57829;DHT22;43657;52.698;6.314;2023-04-24T08:55:08;8.40;99.90
57829;DHT22;43657;52.698;6.314;2023-04-24T08:57:34;8.40;99.90
57829;DHT22;43657;52.698;6.314;2023-04-24T09:00:01;8.40;99.90
57829;DHT22;43657;52.698;6.314;2023-04-24T09:02:27;8.40;99.90
57829;DHT22;43657;52.698;6.314;2023-04-24T09:04:55;8.40;99.90
57829;DHT22;43657;52.698;6.314;2023-04-24T09:07:24;8.40;99.90
57829;DHT22;43657;52.698;6.314;2023-04-24T09:09:51;8.50;99.90
57829;DHT22;43657;52.698;6.314;2023-04-24T09:12:17;8.60;99.90
57829;DHT22;43657;52.698;6.314;2023-04-24T09:14:44;8.70;99.90
57829;DHT22;43657;52.698;6.314;2023-04-24T09:17:11;8.80;99.90
57829;DHT22;43657;52.698;6.314;2023-04-24T09:19:36;8.90;99.90
57829;DHT22;43657;52.698;6.314;2023-04-24T09:22:06;8.90;99.90
57829;DHT22;43657;52.698;6.314;2023-04-24T09:24:33;9.00;99.90
57829;DHT22;43657;52.698;6.314;2023-04-24T09:26:59;9.00;99.90
57829;DHT22;43657;52.698;6.314;2023-04-24T09:29:26;9.00;99.90
57829;DHT22;43657;52.698;6.314;2023-04-24T09:31:52;9.10;99.90
57829;DHT22;43657;52.698;6.314;2023-04-24T09:34:22;9.20;99.90
57829;DHT22;43657;52.698;6.314;2023-04-24T09:36:49;9.20;99.90
57829;DHT22;43657;52.698;6.314;2023-04-24T09:39:16;9.30;99.90
57829;DHT22;43657;52.698;6.314;2023-04-24T09:41:52;9.40;99.90
57829;DHT22;43657;52.698;6.314;2023-04-24T09:44:22;9.40;99.90
57829;DHT22;43657;52.698;6.314;2023-04-24T09:46:54;9.40;99.90
57829;DHT22;43657;52.698;6.314;2023-04-24T09:49:24;9.50;99.90
57829;DHT22;43657;52.698;6.314;2023-04-24T09:51:50;9.50;99.90
57829;DHT22;43657;52.698;6.314;2023-04-24T09:54:20;9.40;99.90
57829;DHT22;43657;52.698;6.314;2023-04-24T09:56:50;9.40;99.90
57829;DHT22;43657;52.698;6.314;2023-04-24T09:59:17;9.40;99.90
57829;DHT22;43657;52.698;6.314;2023-04-24T10:01:43;9.30;99.90
57829;DHT22;43657;52.698;6.314;2023-04-24T10:04:20;9.30;99.90
57829;DHT22;43657;52.698;6.314;2023-04-24T10:06:47;9.20;99.90
57829;DHT22;43657;52.698;6.314;2023-04-24T10:09:14;8.90;99.90
57829;DHT22;43657;52.698;6.314;2023-04-24T10:11:45;8.80;99.90
57829;DHT22;43657;52.698;6.314;2023-04-24T10:14:15;8.60;99.90
57829;DHT22;43657;52.698;6.314;2023-04-24T10:16:42;8.50;99.90
57829;DHT22;43657;52.698;6.314;2023-04-24T10:19:08;8.40;99.90
57829;DHT22;43657;52.698;6.314;2023-04-24T10:21:35;8.30;99.90
57829;DHT22;43657;52.698;6.314;2023-04-24T10:24:01;8.30;99.90
57829;DHT22;43657;52.698;6.314;2023-04-24T10:26:29;8.40;99.90
57829;DHT22;43657;52.698;6.314;2023-04-24T10:28:57;8.40;99.90
57829;DHT22;43657;52.698;6.314;2023-04-24T10:31:22;8.40;99.90
57829;DHT22;43657;52.698;6.314;2023-04-24T10:33:50;8.50;99.90
57829;DHT22;43657;52.698;6.314;2023-04-24T10:36:16;8.60;99.90
57829;DHT22;43657;52.698;6.314;2023-04-24T10:38:43;8.70;99.90
57829;DHT22;43657;52.698;6.314;2023-04-24T10:41:12;8.80;99.90
57829;DHT22;43657;52.698;6.314;2023-04-24T10:44:12;8.80;99.90
57829;DHT22;43657;52.698;6.314;2023-04-24T10:46:39;9.00;99.90
57829;DHT22;43657;52.698;6.314;2023-04-24T10:49:06;9.20;99.90
57829;DHT22;43657;52.698;6.314;2023-04-24T10:51:45;9.40;99.90
57829;DHT22;43657;52.698;6.314;2023-04-24T10:54:45;9.80;99.90
57829;DHT22;43657;52.698;6.314;2023-04-24T10:59:51;10.30;99.90
57829;DHT22;43657;52.698;6.314;2023-04-24T11:02:39;10.50;99.90
57829;DHT22;43657;52.698;6.314;2023-04-24T11:05:06;10.60;99.90
57829;DHT22;43657;52.698;6.314;2023-04-24T11:10:40;10.50;99.90
57829;DHT22;43657;52.698;6.314;2023-04-24T11:13:06;10.30;99.90
57829;DHT22;43657;52.698;6.314;2023-04-24T11:15:32;10.20;99.90
57829;DHT22;43657;52.698;6.314;2023-04-24T11:17:58;10.20;99.90
57829;DHT22;43657;52.698;6.314;2023-04-24T11:20:23;10.20;99.90
57829;DHT22;43657;52.698;6.314;2023-04-24T11:22:53;10.20;99.90
57829;DHT22;43657;52.698;6.314;2023-04-24T11:25:23;10.10;99.90
57829;DHT22;43657;52.698;6.314;2023-04-24T11:27:50;10.10;99.90
57829;DHT22;43657;52.698;6.314;2023-04-24T11:30:29;10.00;99.90
57829;DHT22;43657;52.698;6.314;2023-04-24T11:33:04;10.00;99.90
57829;DHT22;43657;52.698;6.314;2023-04-24T11:35:35;10.10;99.90
57829;DHT22;43657;52.698;6.314;2023-04-24T11:38:04;10.10;99.90
57829;DHT22;43657;52.698;6.314;2023-04-24T11:40:30;10.00;99.90
57829;DHT22;43657;52.698;6.314;2023-04-24T11:42:56;10.00;99.90
57829;DHT22;43657;52.698;6.314;2023-04-24T11:45:26;9.90;99.90
57829;DHT22;43657;52.698;6.314;2023-04-24T11:47:52;9.70;99.90
57829;DHT22;43657;52.698;6.314;2023-04-24T11:50:20;9.50;99.90
57829;DHT22;43657;52.698;6.314;2023-04-24T11:52:48;9.40;99.90
57829;DHT22;43657;52.698;6.314;2023-04-24T11:57:41;9.50;99.90
57829;DHT22;43657;52.698;6.314;2023-04-24T12:00:19;9.70;99.90
57829;DHT22;43657;52.698;6.314;2023-04-24T12:02:46;9.70;99.90
57829;DHT22;43657;52.698;6.314;2023-04-24T12:05:29;9.70;99.90
57829;DHT22;43657;52.698;6.314;2023-04-24T12:07:56;9.60;99.90
57829;DHT22;43657;52.698;6.314;2023-04-24T12:10:26;9.60;99.90
57829;DHT22;43657;52.698;6.314;2023-04-24T12:12:52;9.60;99.90
57829;DHT22;43657;52.698;6.314;2023-04-24T12:15:21;9.80;99.90
57829;DHT22;43657;52.698;6.314;2023-04-24T12:17:47;10.00;99.90
57829;DHT22;43657;52.698;6.314;2023-04-24T12:20:13;10.50;99.90
57829;DHT22;43657;52.698;6.314;2023-04-24T12:22:44;10.90;99.90
57829;DHT22;43657;52.698;6.314;2023-04-24T12:25:11;11.10;99.90
57829;DHT22;43657;52.698;6.314;2023-04-24T12:27:37;11.00;99.90
57829;DHT22;43657;52.698;6.314;2023-04-24T12:30:05;10.80;99.90
57829;DHT22;43657;52.698;6.314;2023-04-24T12:32:31;10.40;99.90
57829;DHT22;43657;52.698;6.314;2023-04-24T12:34:57;10.10;99.90
57829;DHT22;43657;52.698;6.314;2023-04-24T12:37:32;10.00;99.90
57829;DHT22;43657;52.698;6.314;2023-04-24T12:42:31;9.70;99.90
57829;DHT22;43657;52.698;6.314;2023-04-24T12:45:02;9.60;99.90
57829;DHT22;43657;52.698;6.314;2023-04-24T12:47:32;9.50;99.90
57829;DHT22;43657;52.698;6.314;2023-04-24T12:49:58;9.40;99.90
57829;DHT22;43657;52.698;6.314;2023-04-24T12:52:24;9.40;99.90
57829;DHT22;43657;52.698;6.314;2023-04-24T12:54:52;9.40;99.90
57829;DHT22;43657;52.698;6.314;2023-04-24T12:57:18;9.50;99.90
57829;DHT22;43657;52.698;6.314;2023-04-24T12:59:44;9.60;99.90
57829;DHT22;43657;52.698;6.314;2023-04-24T13:02:10;9.60;99.90
57829;DHT22;43657;52.698;6.314;2023-04-24T13:04:36;9.60;99.90
57829;DHT22;43657;52.698;6.314;2023-04-24T13:07:02;9.50;99.90
57829;DHT22;43657;52.698;6.314;2023-04-24T13:09:27;9.30;99.90
57829;DHT22;43657;52.698;6.314;2023-04-24T13:11:54;9.30;99.90
57829;DHT22;43657;52.698;6.314;2023-04-24T13:14:21;9.30;99.90
57829;DHT22;43657;52.698;6.314;2023-04-24T13:16:47;9.30;99.90
57829;DHT22;43657;52.698;6.314;2023-04-24T13:19:12;9.40;99.90
57829;DHT22;43657;52.698;6.314;2023-04-24T13:21:38;9.40;99.90
57829;DHT22;43657;52.698;6.314;2023-04-24T13:24:04;9.50;99.90
57829;DHT22;43657;52.698;6.314;2023-04-24T13:26:30;9.40;99.90
57829;DHT22;43657;52.698;6.314;2023-04-24T13:28:56;9.40;99.90
57829;DHT22;43657;52.698;6.314;2023-04-24T13:31:21;9.30;99.90
57829;DHT22;43657;52.698;6.314;2023-04-24T13:33:47;9.30;99.90
57829;DHT22;43657;52.698;6.314;2023-04-24T13:36:13;9.30;99.90
57829;DHT22;43657;52.698;6.314;2023-04-24T13:38:38;9.40;99.90
57829;DHT22;43657;52.698;6.314;2023-04-24T13:41:04;9.50;99.90
57829;DHT22;43657;52.698;6.314;2023-04-24T13:43:30;9.50;99.90
57829;DHT22;43657;52.698;6.314;2023-04-24T13:45:55;9.50;99.90
57829;DHT22;43657;52.698;6.314;2023-04-24T13:48:21;9.40;99.90
57829;DHT22;43657;52.698;6.314;2023-04-24T13:50:46;9.40;99.90
57829;DHT22;43657;52.698;6.314;2023-04-24T13:53:14;9.20;99.90
57829;DHT22;43657;52.698;6.314;2023-04-24T13:55:39;9.10;99.90
57829;DHT22;43657;52.698;6.314;2023-04-24T13:58:06;9.10;99.90
57829;DHT22;43657;52.698;6.314;2023-04-24T14:00:33;9.00;99.90
57829;DHT22;43657;52.698;6.314;2023-04-24T14:02:58;8.90;99.90
57829;DHT22;43657;52.698;6.314;2023-04-24T14:05:24;8.90;99.90
57829;DHT22;43657;52.698;6.314;2023-04-24T14:07:50;8.80;99.90
57829;DHT22;43657;52.698;6.314;2023-04-24T14:10:16;8.80;99.90
57829;DHT22;43657;52.698;6.314;2023-04-24T14:12:41;8.80;99.90
57829;DHT22;43657;52.698;6.314;2023-04-24T14:15:07;8.80;99.90
57829;DHT22;43657;52.698;6.314;2023-04-24T14:17:34;8.80;99.90
57829;DHT22;43657;52.698;6.314;2023-04-24T14:19:59;8.80;99.90
57829;DHT22;43657;52.698;6.314;2023-04-24T14:22:25;8.70;99.90
57829;DHT22;43657;52.698;6.314;2023-04-24T14:24:51;8.70;99.90
57829;DHT22;43657;52.698;6.314;2023-04-24T14:27:17;8.70;99.90
57829;DHT22;43657;52.698;6.314;2023-04-24T14:29:42;8.70;99.90
57829;DHT22;43657;52.698;6.314;2023-04-24T14:32:08;8.80;99.90
57829;DHT22;43657;52.698;6.314;2023-04-24T14:34:34;8.80;99.90
57829;DHT22;43657;52.698;6.314;2023-04-24T14:37:00;8.80;99.90
57829;DHT22;43657;52.698;6.314;2023-04-24T14:39:25;8.90;99.90
57829;DHT22;43657;52.698;6.314;2023-04-24T14:41:51;8.90;99.90
57829;DHT22;43657;52.698;6.314;2023-04-24T14:44:16;9.10;99.90
57829;DHT22;43657;52.698;6.314;2023-04-24T14:46:42;9.20;99.90
57829;DHT22;43657;52.698;6.314;2023-04-24T14:49:08;9.20;99.90
57829;DHT22;43657;52.698;6.314;2023-04-24T14:51:35;9.30;99.90
57829;DHT22;43657;52.698;6.314;2023-04-24T14:54:01;9.20;99.90
57829;DHT22;43657;52.698;6.314;2023-04-24T14:56:27;9.20;99.90
57829;DHT22;43657;52.698;6.314;2023-04-24T14:58:52;9.10;99.90
57829;DHT22;43657;52.698;6.314;2023-04-24T15:01:18;9.00;99.90
57829;DHT22;43657;52.698;6.314;2023-04-24T15:03:44;9.10;99.90
57829;DHT22;43657;52.698;6.314;2023-04-24T15:06:09;9.20;99.90
57829;DHT22;43657;52.698;6.314;2023-04-24T15:08:35;9.30;99.90
57829;DHT22;43657;52.698;6.314;2023-04-24T15:11:01;9.40;99.90
57829;DHT22;43657;52.698;6.314;2023-04-24T15:13:26;9.40;99.90
57829;DHT22;43657;52.698;6.314;2023-04-24T15:15:52;9.30;99.90
57829;DHT22;43657;52.698;6.314;2023-04-24T15:18:18;9.30;99.90
57829;DHT22;43657;52.698;6.314;2023-04-24T15:20:43;9.40;99.90
57829;DHT22;43657;52.698;6.314;2023-04-24T15:23:09;9.50;99.90
57829;DHT22;43657;52.698;6.314;2023-04-24T15:25:36;9.60;99.90
57829;DHT22;43657;52.698;6.314;2023-04-24T15:28:01;9.50;99.90
57829;DHT22;43657;52.698;6.314;2023-04-24T15:30:29;9.50;99.90
57829;DHT22;43657;52.698;6.314;2023-04-24T15:32:54;9.40;99.90
57829;DHT22;43657;52.698;6.314;2023-04-24T15:35:20;9.40;99.90
57829;DHT22;43657;52.698;6.314;2023-04-24T15:37:46;9.40;99.90
57829;DHT22;43657;52.698;6.314;2023-04-24T15:40:13;9.40;99.90
57829;DHT22;43657;52.698;6.314;2023-04-24T15:42:41;9.50;99.90
57829;DHT22;43657;52.698;6.314;2023-04-24T15:45:08;9.60;99.90
57829;DHT22;43657;52.698;6.314;2023-04-24T15:47:33;9.60;99.90
57829;DHT22;43657;52.698;6.314;2023-04-24T15:49:59;9.70;99.90
57829;DHT22;43657;52.698;6.314;2023-04-24T15:52:25;9.80;99.90